Terminal Aerodrome Forecast
Issued by NWS

Home | Current Version | Previous Version | Text Only | Print | Product List | Glossary On
Versions: 1 2 3 4 5 6 7 8 9 10 11 12 13 14 15 16 17 18 19 20 21 22 23
000
FTUS43 KPAH 301400 AAA
TAFCGI
TAF AMD
KCGI 301457Z 3015/3112 20004KT 6SM -SHRA BR VCTS SCT015CB BKN100
     FM302200 19007KT P6SM OVC035
     FM310300 18004KT 2SM BR OVC007
     FM310800 18003KT 1SM BR OVC004=

USA.gov is the U.S. government's official web portal to all federal, state and local government web resources and services.